sensor_id;sensor_type;location;lat;lon;timestamp;pressure;altitude;pressure_sealevel;temperature
75273;BMP280;63869;52.344;16.928;2023-05-07T00:00:09;101386.41;;;9.06
75273;BMP280;63869;52.344;16.928;2023-05-07T00:02:35;101375.31;;;8.97
75273;BMP280;63869;52.344;16.928;2023-05-07T00:05:01;101391.00;;;9.06
75273;BMP280;63869;52.344;16.928;2023-05-07T00:07:27;101389.81;;;9.03
75273;BMP280;63869;52.344;16.928;2023-05-07T00:09:53;101381.47;;;9.01
75273;BMP280;63869;52.344;16.928;2023-05-07T00:12:18;101378.34;;;8.95
75273;BMP280;63869;52.344;16.928;2023-05-07T00:14:44;101371.47;;;8.87
75273;BMP280;63869;52.344;16.928;2023-05-07T00:17:09;101382.91;;;8.95
75273;BMP280;63869;52.344;16.928;2023-05-07T00:19:35;101375.69;;;8.92
75273;BMP280;63869;52.344;16.928;2023-05-07T00:22:00;101394.44;;;9.06
75273;BMP280;63869;52.344;16.928;2023-05-07T00:24:25;101385.97;;;8.97
75273;BMP280;63869;52.344;16.928;2023-05-07T00:26:51;101387.50;;;8.98
75273;BMP280;63869;52.344;16.928;2023-05-07T00:29:17;101388.25;;;8.95
75273;BMP280;63869;52.344;16.928;2023-05-07T00:31:43;101379.88;;;8.96
75273;BMP280;63869;52.344;16.928;2023-05-07T00:34:08;101373.41;;;8.97
75273;BMP280;63869;52.344;16.928;2023-05-07T00:36:33;101383.00;;;9.02
75273;BMP280;63869;52.344;16.928;2023-05-07T00:39:00;101373.03;;;8.95
75273;BMP280;63869;52.344;16.928;2023-05-07T00:41:26;101380.66;;;8.97
75273;BMP280;63869;52.344;16.928;2023-05-07T00:43:52;101383.75;;;8.99
75273;BMP280;63869;52.344;16.928;2023-05-07T00:46:20;101379.16;;;9.00
75273;BMP280;63869;52.344;16.928;2023-05-07T00:48:46;101389.81;;;9.03
75273;BMP280;63869;52.344;16.928;2023-05-07T00:51:11;101359.28;;;8.83
75273;BMP280;63869;52.344;16.928;2023-05-07T00:53:37;101362.31;;;8.85
75273;BMP280;63869;52.344;16.928;2023-05-07T00:56:03;101382.53;;;8.89
75273;BMP280;63869;52.344;16.928;2023-05-07T00:58:29;101387.88;;;8.93
75273;BMP280;63869;52.344;16.928;2023-05-07T01:00:55;101410.81;;;9.05
75273;BMP280;63869;52.344;16.928;2023-05-07T01:03:20;101407.78;;;9.03
75273;BMP280;63869;52.344;16.928;2023-05-07T01:05:47;101391.28;;;8.93
75273;BMP280;63869;52.344;16.928;2023-05-07T01:08:13;101399.31;;;8.97
75273;BMP280;63869;52.344;16.928;2023-05-07T01:10:40;101379.06;;;8.82
75273;BMP280;63869;52.344;16.928;2023-05-07T01:13:08;101388.63;;;8.90
75273;BMP280;63869;52.344;16.928;2023-05-07T01:15:35;101403.56;;;9.02
75273;BMP280;63869;52.344;16.928;2023-05-07T01:18:00;101400.47;;;8.96
75273;BMP280;63869;52.344;16.928;2023-05-07T01:20:27;101387.78;;;8.79
75273;BMP280;63869;52.344;16.928;2023-05-07T01:22:53;101398.50;;;8.86
75273;BMP280;63869;52.344;16.928;2023-05-07T01:25:18;101401.47;;;8.74
75273;BMP280;63869;52.344;16.928;2023-05-07T01:27:44;101401.06;;;8.68
75273;BMP280;63869;52.344;16.928;2023-05-07T01:30:10;101400.25;;;8.64
75273;BMP280;63869;52.344;16.928;2023-05-07T01:32:43;101400.31;;;8.68
75273;BMP280;63869;52.344;16.928;2023-05-07T01:35:11;101399.47;;;8.60
75273;BMP280;63869;52.344;16.928;2023-05-07T01:37:38;101412.88;;;8.67
75273;BMP280;63869;52.344;16.928;2023-05-07T01:40:05;101407.09;;;8.65
75273;BMP280;63869;52.344;16.928;2023-05-07T01:42:31;101408.31;;;8.68
75273;BMP280;63869;52.344;16.928;2023-05-07T01:44:56;101404.88;;;8.67
75273;BMP280;63869;52.344;16.928;2023-05-07T01:47:22;101396.81;;;8.60
75273;BMP280;63869;52.344;16.928;2023-05-07T01:49:48;101415.56;;;8.71
75273;BMP280;63869;52.344;16.928;2023-05-07T01:52:13;101405.19;;;8.58
75273;BMP280;63869;52.344;16.928;2023-05-07T01:54:38;101409.72;;;8.54
75273;BMP280;63869;52.344;16.928;2023-05-07T01:57:04;101413.84;;;8.48
75273;BMP280;63869;52.344;16.928;2023-05-07T01:59:29;101409.25;;;8.42
75273;BMP280;63869;52.344;16.928;2023-05-07T02:01:55;101403.50;;;8.36
75273;BMP280;63869;52.344;16.928;2023-05-07T02:04:20;101403.75;;;8.24
75273;BMP280;63869;52.344;16.928;2023-05-07T02:06:45;101402.09;;;8.09
75273;BMP280;63869;52.344;16.928;2023-05-07T02:09:11;101416.56;;;8.08
75273;BMP280;63869;52.344;16.928;2023-05-07T02:11:37;101430.94;;;8.00
75273;BMP280;63869;52.344;16.928;2023-05-07T02:14:02;101422.50;;;7.94
75273;BMP280;63869;52.344;16.928;2023-05-07T02:16:27;101427.41;;;7.88
75273;BMP280;63869;52.344;16.928;2023-05-07T02:18:53;101429.59;;;7.83
75273;BMP280;63869;52.344;16.928;2023-05-07T02:21:18;101428.09;;;7.85
75273;BMP280;63869;52.344;16.928;2023-05-07T02:23:43;101431.59;;;7.93
75273;BMP280;63869;52.344;16.928;2023-05-07T02:26:10;101431.66;;;7.97
75273;BMP280;63869;52.344;16.928;2023-05-07T02:28:36;101424.91;;;8.06
75273;BMP280;63869;52.344;16.928;2023-05-07T02:31:04;101421.81;;;8.01
75273;BMP280;63869;52.344;16.928;2023-05-07T02:33:30;101430.28;;;8.10
75273;BMP280;63869;52.344;16.928;2023-05-07T02:35:55;101425.69;;;8.07
75273;BMP280;63869;52.344;16.928;2023-05-07T02:38:21;101436.81;;;8.19
75273;BMP280;63869;52.344;16.928;2023-05-07T02:40:47;101429.19;;;8.18
75273;BMP280;63869;52.344;16.928;2023-05-07T02:43:12;101431.97;;;8.28
75273;BMP280;63869;52.344;16.928;2023-05-07T02:45:37;101425.91;;;8.32
75273;BMP280;63869;52.344;16.928;2023-05-07T02:48:03;101437.78;;;8.41
75273;BMP280;63869;52.344;16.928;2023-05-07T02:50:30;101436.22;;;8.37
75273;BMP280;63869;52.344;16.928;2023-05-07T02:52:57;101428.91;;;8.26
75273;BMP280;63869;52.344;16.928;2023-05-07T02:55:23;101429.31;;;8.28
75273;BMP280;63869;52.344;16.928;2023-05-07T02:57:48;101425.06;;;8.24
75273;BMP280;63869;52.344;16.928;2023-05-07T03:00:15;101429.63;;;8.23
75273;BMP280;63869;52.344;16.928;2023-05-07T03:02:41;101431.84;;;8.18
75273;BMP280;63869;52.344;16.928;2023-05-07T03:05:06;101436.41;;;8.17
75273;BMP280;63869;52.344;16.928;2023-05-07T03:07:31;101437.16;;;8.14
75273;BMP280;63869;52.344;16.928;2023-05-07T03:09:57;101438.75;;;8.22
75273;BMP280;63869;52.344;16.928;2023-05-07T03:12:22;101431.84;;;8.18
75273;BMP280;63869;52.344;16.928;2023-05-07T03:14:47;101428.38;;;8.14
75273;BMP280;63869;52.344;16.928;2023-05-07T03:17:13;101445.59;;;8.20
75273;BMP280;63869;52.344;16.928;2023-05-07T03:19:38;101439.84;;;8.18
75273;BMP280;63869;52.344;16.928;2023-05-07T03:22:03;101445.97;;;8.22
75273;BMP280;63869;52.344;16.928;2023-05-07T03:24:30;101462.44;;;8.31
75273;BMP280;63869;52.344;16.928;2023-05-07T03:26:56;101445.66;;;8.27
75273;BMP280;63869;52.344;16.928;2023-05-07T03:29:23;101459.44;;;8.36
75273;BMP280;63869;52.344;16.928;2023-05-07T03:31:48;101456.78;;;8.36
75273;BMP280;63869;52.344;16.928;2023-05-07T03:34:13;101458.31;;;8.37
75273;BMP280;63869;52.344;16.928;2023-05-07T03:36:39;101460.97;;;8.37
75273;BMP280;63869;52.344;16.928;2023-05-07T03:39:04;101461.38;;;8.39
75273;BMP280;63869;52.344;16.928;2023-05-07T03:41:30;101449.19;;;8.38
75273;BMP280;63869;52.344;16.928;2023-05-07T03:43:55;101466.75;;;8.46
75273;BMP280;63869;52.344;16.928;2023-05-07T03:46:20;101450.31;;;8.37
75273;BMP280;63869;52.344;16.928;2023-05-07T03:48:46;101475.88;;;8.42
75273;BMP280;63869;52.344;16.928;2023-05-07T03:51:11;101468.13;;;8.33
75273;BMP280;63869;52.344;16.928;2023-05-07T03:53:36;101479.19;;;8.35
75273;BMP280;63869;52.344;16.928;2023-05-07T03:56:02;101467.31;;;8.25
75273;BMP280;63869;52.344;16.928;2023-05-07T03:58:27;101471.16;;;8.28
75273;BMP280;63869;52.344;16.928;2023-05-07T04:00:53;101453.25;;;8.25
75273;BMP280;63869;52.344;16.928;2023-05-07T04:03:18;101462.81;;;8.33
75273;BMP280;63869;52.344;16.928;2023-05-07T04:05:44;101482.34;;;8.44
75273;BMP280;63869;52.344;16.928;2023-05-07T04:08:09;101482.44;;;8.55
75273;BMP280;63869;52.344;16.928;2023-05-07T04:10:35;101485.50;;;8.57
75273;BMP280;63869;52.344;16.928;2023-05-07T04:13:00;101487.06;;;8.61
75273;BMP280;63869;52.344;16.928;2023-05-07T04:15:25;101482.19;;;8.67
75273;BMP280;63869;52.344;16.928;2023-05-07T04:17:51;101482.63;;;8.76
75273;BMP280;63869;52.344;16.928;2023-05-07T04:20:17;101508.66;;;8.93
75273;BMP280;63869;52.344;16.928;2023-05-07T04:22:42;101504.94;;;9.02
75273;BMP280;63869;52.344;16.928;2023-05-07T04:25:08;101511.06;;;9.09
75273;BMP280;63869;52.344;16.928;2023-05-07T04:27:35;101507.72;;;9.23
75273;BMP280;63869;52.344;16.928;2023-05-07T04:30:01;101518.91;;;9.50
75273;BMP280;63869;52.344;16.928;2023-05-07T04:32:28;101516.34;;;9.64
75273;BMP280;63869;52.344;16.928;2023-05-07T04:34:54;101512.16;;;9.74
75273;BMP280;63869;52.344;16.928;2023-05-07T04:37:20;101515.25;;;9.79
75273;BMP280;63869;52.344;16.928;2023-05-07T04:39:46;101488.50;;;9.69
75273;BMP280;63869;52.344;16.928;2023-05-07T04:42:15;101524.41;;;9.85
75273;BMP280;63869;52.344;16.928;2023-05-07T04:44:40;101541.59;;;9.88
75273;BMP280;63869;52.344;16.928;2023-05-07T04:47:06;101538.94;;;9.84
75273;BMP280;63869;52.344;16.928;2023-05-07T04:49:31;101510.63;;;9.69
75273;BMP280;63869;52.344;16.928;2023-05-07T04:51:56;101544.63;;;9.86
75273;BMP280;63869;52.344;16.928;2023-05-07T04:54:22;101546.22;;;9.94
75273;BMP280;63869;52.344;16.928;2023-05-07T04:56:47;101543.56;;;10.02
75273;BMP280;63869;52.344;16.928;2023-05-07T04:59:12;101546.28;;;10.19
75273;BMP280;63869;52.344;16.928;2023-05-07T05:01:38;101545.19;;;10.34
75273;BMP280;63869;52.344;16.928;2023-05-07T05:04:03;101543.69;;;10.44
75273;BMP280;63869;52.344;16.928;2023-05-07T05:06:29;101544.78;;;10.54
75273;BMP280;63869;52.344;16.928;2023-05-07T05:08:54;101536.41;;;10.52
75273;BMP280;63869;52.344;16.928;2023-05-07T05:11:20;101545.97;;;10.49
75273;BMP280;63869;52.344;16.928;2023-05-07T05:13:46;101546.34;;;10.48
75273;BMP280;63869;52.344;16.928;2023-05-07T05:16:14;101544.78;;;10.40
75273;BMP280;63869;52.344;16.928;2023-05-07T05:18:39;101527.63;;;10.26
75273;BMP280;63869;52.344;16.928;2023-05-07T05:21:06;101552.06;;;10.35
75273;BMP280;63869;52.344;16.928;2023-05-07T05:23:31;101539.44;;;10.29
75273;BMP280;63869;52.344;16.928;2023-05-07T05:25:57;101547.44;;;10.36
75273;BMP280;63869;52.344;16.928;2023-05-07T05:28:23;101561.63;;;10.40
75273;BMP280;63869;52.344;16.928;2023-05-07T05:30:48;101564.28;;;10.54
75273;BMP280;63869;52.344;16.928;2023-05-07T05:33:14;101565.84;;;10.73
75273;BMP280;63869;52.344;16.928;2023-05-07T05:35:39;101554.41;;;10.73
75273;BMP280;63869;52.344;16.928;2023-05-07T05:38:05;101570.44;;;10.90
75273;BMP280;63869;52.344;16.928;2023-05-07T05:40:30;101582.66;;;10.98
75273;BMP280;63869;52.344;16.928;2023-05-07T05:42:56;101573.84;;;10.87
75273;BMP280;63869;52.344;16.928;2023-05-07T05:45:21;101576.91;;;10.86
75273;BMP280;63869;52.344;16.928;2023-05-07T05:47:48;101579.97;;;10.77
75273;BMP280;63869;52.344;16.928;2023-05-07T05:50:13;101555.13;;;10.55
75273;BMP280;63869;52.344;16.928;2023-05-07T05:52:39;101562.81;;;10.60
75273;BMP280;63869;52.344;16.928;2023-05-07T05:55:06;101571.56;;;10.57
75273;BMP280;63869;52.344;16.928;2023-05-07T05:57:31;101565.81;;;10.48
75273;BMP280;63869;52.344;16.928;2023-05-07T05:59:57;101580.31;;;10.54
75273;BMP280;63869;52.344;16.928;2023-05-07T06:02:22;101561.63;;;10.40
75273;BMP280;63869;52.344;16.928;2023-05-07T06:04:47;101586.09;;;10.63
75273;BMP280;63869;52.344;16.928;2023-05-07T06:07:13;101581.13;;;10.62
75273;BMP280;63869;52.344;16.928;2023-05-07T06:09:40;101565.81;;;10.48
75273;BMP280;63869;52.344;16.928;2023-05-07T06:12:05;101594.88;;;10.67
75273;BMP280;63869;52.344;16.928;2023-05-07T06:14:30;101595.63;;;10.71
75273;BMP280;63869;52.344;16.928;2023-05-07T06:16:56;101571.97;;;10.66
75273;BMP280;63869;52.344;16.928;2023-05-07T06:19:22;101580.38;;;10.79
75273;BMP280;63869;52.344;16.928;2023-05-07T06:21:49;101577.31;;;10.81
75273;BMP280;63869;52.344;16.928;2023-05-07T06:24:14;101593.38;;;10.88
75273;BMP280;63869;52.344;16.928;2023-05-07T06:26:40;101590.69;;;10.95
75273;BMP280;63869;52.344;16.928;2023-05-07T06:29:06;101589.53;;;10.96
75273;BMP280;63869;52.344;16.928;2023-05-07T06:31:31;101588.41;;;11.04
75273;BMP280;63869;52.344;16.928;2023-05-07T06:33:57;101600.63;;;11.19
75273;BMP280;63869;52.344;16.928;2023-05-07T06:36:22;101576.53;;;11.19
75273;BMP280;63869;52.344;16.928;2023-05-07T06:38:48;101587.97;;;11.27
75273;BMP280;63869;52.344;16.928;2023-05-07T06:41:13;101583.38;;;11.34
75273;BMP280;63869;52.344;16.928;2023-05-07T06:43:38;101584.50;;;11.33
75273;BMP280;63869;52.344;16.928;2023-05-07T06:46:04;101584.91;;;11.46
75273;BMP280;63869;52.344;16.928;2023-05-07T06:48:30;101589.84;;;11.48
75273;BMP280;63869;52.344;16.928;2023-05-07T06:50:57;101584.47;;;11.48
75273;BMP280;63869;52.344;16.928;2023-05-07T06:53:45;101589.47;;;11.53
75273;BMP280;63869;52.344;16.928;2023-05-07T06:56:10;101576.47;;;11.40
75273;BMP280;63869;52.344;16.928;2023-05-07T06:58:36;101596.72;;;11.59
75273;BMP280;63869;52.344;16.928;2023-05-07T07:01:01;101598.25;;;11.67
75273;BMP280;63869;52.344;16.928;2023-05-07T07:03:26;101599.34;;;11.70
75273;BMP280;63869;52.344;16.928;2023-05-07T07:05:53;101592.50;;;11.69
75273;BMP280;63869;52.344;16.928;2023-05-07T07:08:18;101592.50;;;11.69
75273;BMP280;63869;52.344;16.928;2023-05-07T07:10:46;101602.38;;;11.79
75273;BMP280;63869;52.344;16.928;2023-05-07T07:13:11;101612.31;;;11.89
75273;BMP280;63869;52.344;16.928;2023-05-07T07:15:37;101607.66;;;12.00
75273;BMP280;63869;52.344;16.928;2023-05-07T07:18:02;101627.56;;;12.03
75273;BMP280;63869;52.344;16.928;2023-05-07T07:20:27;101631.41;;;12.05
75273;BMP280;63869;52.344;16.928;2023-05-07T07:22:53;101635.94;;;12.08
75273;BMP280;63869;52.344;16.928;2023-05-07T07:25:18;101626.00;;;12.12
75273;BMP280;63869;52.344;16.928;2023-05-07T07:27:43;101629.34;;;12.27
75273;BMP280;63869;52.344;16.928;2023-05-07T07:30:10;101632.00;;;12.34
75273;BMP280;63869;52.344;16.928;2023-05-07T07:32:38;101635.75;;;12.44
75273;BMP280;63869;52.344;16.928;2023-05-07T07:35:05;101622.75;;;12.42
75273;BMP280;63869;52.344;16.928;2023-05-07T07:37:36;101628.06;;;12.53
75273;BMP280;63869;52.344;16.928;2023-05-07T07:40:02;101642.78;;;12.82
75273;BMP280;63869;52.344;16.928;2023-05-07T07:42:33;101643.75;;;13.03
75273;BMP280;63869;52.344;16.928;2023-05-07T07:45:25;101634.53;;;13.07
75273;BMP280;63869;52.344;16.928;2023-05-07T07:47:51;101629.91;;;13.11
75273;BMP280;63869;52.344;16.928;2023-05-07T07:53:15;101655.56;;;13.53
75273;BMP280;63869;52.344;16.928;2023-05-07T07:55:40;101649.38;;;13.60
75273;BMP280;63869;52.344;16.928;2023-05-07T07:58:06;101662.25;;;13.76
75273;BMP280;63869;52.344;16.928;2023-05-07T08:00:31;101657.88;;;13.89
75273;BMP280;63869;52.344;16.928;2023-05-07T08:02:57;101653.38;;;14.09
75273;BMP280;63869;52.344;16.928;2023-05-07T08:05:23;101654.00;;;14.20
75273;BMP280;63869;52.344;16.928;2023-05-07T08:07:48;101675.88;;;14.49
75273;BMP280;63869;52.344;16.928;2023-05-07T08:10:17;101671.75;;;14.68
75273;BMP280;63869;52.344;16.928;2023-05-07T08:12:48;101665.59;;;14.91
75273;BMP280;63869;52.344;16.928;2023-05-07T08:15:13;101673.19;;;14.96
75273;BMP280;63869;52.344;16.928;2023-05-07T08:17:39;101681.00;;;15.14
75273;BMP280;63869;52.344;16.928;2023-05-07T08:20:05;101672.03;;;15.40
75273;BMP280;63869;52.344;16.928;2023-05-07T08:22:30;101676.88;;;15.68
75273;BMP280;63869;52.344;16.928;2023-05-07T08:24:56;101681.06;;;15.89
75273;BMP280;63869;52.344;16.928;2023-05-07T08:27:21;101681.31;;;16.14
75273;BMP280;63869;52.344;16.928;2023-05-07T08:29:46;101677.03;;;16.33
75273;BMP280;63869;52.344;16.928;2023-05-07T08:32:13;101686.66;;;16.67
75273;BMP280;63869;52.344;16.928;2023-05-07T08:34:38;101689.81;;;16.94
75273;BMP280;63869;52.344;16.928;2023-05-07T08:37:04;101697.38;;;17.15
75273;BMP280;63869;52.344;16.928;2023-05-07T08:39:29;101696.56;;;17.31
75273;BMP280;63869;52.344;16.928;2023-05-07T08:41:55;101692.56;;;17.52
75273;BMP280;63869;52.344;16.928;2023-05-07T08:44:25;101698.41;;;17.63
75273;BMP280;63869;52.344;16.928;2023-05-07T08:46:53;101712.53;;;17.83
75273;BMP280;63869;52.344;16.928;2023-05-07T08:49:20;101709.28;;;17.88
75273;BMP280;63869;52.344;16.928;2023-05-07T08:51:45;101717.81;;;17.87
75273;BMP280;63869;52.344;16.928;2023-05-07T08:54:11;101723.66;;;17.72
75273;BMP280;63869;52.344;16.928;2023-05-07T08:56:37;101726.69;;;17.46
75273;BMP280;63869;52.344;16.928;2023-05-07T08:59:02;101720.44;;;17.20
75273;BMP280;63869;52.344;16.928;2023-05-07T09:01:28;101721.72;;;17.15
75273;BMP280;63869;52.344;16.928;2023-05-07T09:03:54;101728.94;;;17.34
75273;BMP280;63869;52.344;16.928;2023-05-07T09:06:21;101709.69;;;17.32
75273;BMP280;63869;52.344;16.928;2023-05-07T09:08:52;101725.19;;;17.45
75273;BMP280;63869;52.344;16.928;2023-05-07T09:11:20;101722.91;;;17.43
75273;BMP280;63869;52.344;16.928;2023-05-07T09:13:46;101726.53;;;17.53
75273;BMP280;63869;52.344;16.928;2023-05-07T09:16:12;101726.75;;;17.58
75273;BMP280;63869;52.344;16.928;2023-05-07T09:18:44;101731.06;;;17.56
75273;BMP280;63869;52.344;16.928;2023-05-07T09:21:11;101728.06;;;17.54
75273;BMP280;63869;52.344;16.928;2023-05-07T09:23:36;101732.22;;;17.42
75273;BMP280;63869;52.344;16.928;2023-05-07T09:26:01;101733.63;;;17.47
75273;BMP280;63869;52.344;16.928;2023-05-07T09:28:28;101718.72;;;17.55
75273;BMP280;63869;52.344;16.928;2023-05-07T09:30:53;101724.31;;;17.64
75273;BMP280;63869;52.344;16.928;2023-05-07T09:33:20;101724.41;;;17.73
75273;BMP280;63869;52.344;16.928;2023-05-07T09:35:45;101722.66;;;17.79
75273;BMP280;63869;52.344;16.928;2023-05-07T09:38:12;101729.97;;;17.82
75273;BMP280;63869;52.344;16.928;2023-05-07T09:40:37;101738.13;;;17.78
75273;BMP280;63869;52.344;16.928;2023-05-07T09:43:10;101734.28;;;17.80
75273;BMP280;63869;52.344;16.928;2023-05-07T09:45:37;101736.53;;;17.68
75273;BMP280;63869;52.344;16.928;2023-05-07T09:48:05;101741.56;;;17.54
75273;BMP280;63869;52.344;16.928;2023-05-07T09:50:48;101745.84;;;17.38
75273;BMP280;63869;52.344;16.928;2023-05-07T09:53:16;101739.91;;;17.44
75273;BMP280;63869;52.344;16.928;2023-05-07T09:55:45;101742.84;;;17.49
75273;BMP280;63869;52.344;16.928;2023-05-07T09:58:12;101736.00;;;17.45
75273;BMP280;63869;52.344;16.928;2023-05-07T10:00:39;101746.25;;;17.66
75273;BMP280;63869;52.344;16.928;2023-05-07T10:03:05;101753.72;;;17.74
75273;BMP280;63869;52.344;16.928;2023-05-07T10:05:32;101751.28;;;17.80
75273;BMP280;63869;52.344;16.928;2023-05-07T10:07:58;101743.59;;;18.04
75273;BMP280;63869;52.344;16.928;2023-05-07T10:10:23;101743.47;;;18.07
75273;BMP280;63869;52.344;16.928;2023-05-07T10:12:50;101754.13;;;18.14
75273;BMP280;63869;52.344;16.928;2023-05-07T10:15:16;101749.91;;;18.13
75273;BMP280;63869;52.344;16.928;2023-05-07T10:17:41;101744.56;;;18.23
75273;BMP280;63869;52.344;16.928;2023-05-07T10:20:08;101739.34;;;18.41
75273;BMP280;63869;52.344;16.928;2023-05-07T10:22:45;101750.97;;;18.41
75273;BMP280;63869;52.344;16.928;2023-05-07T10:25:25;101752.59;;;18.51
75273;BMP280;63869;52.344;16.928;2023-05-07T10:27:55;101760.69;;;18.77
75273;BMP280;63869;52.344;16.928;2023-05-07T10:33:10;101736.78;;;19.19
75273;BMP280;63869;52.344;16.928;2023-05-07T10:35:40;101736.00;;;19.18
75273;BMP280;63869;52.344;16.928;2023-05-07T10:38:07;101744.41;;;19.33
75273;BMP280;63869;52.344;16.928;2023-05-07T10:40:32;101745.56;;;19.45
75273;BMP280;63869;52.344;16.928;2023-05-07T10:43:03;101760.13;;;19.60
75273;BMP280;63869;52.344;16.928;2023-05-07T10:45:31;101757.19;;;19.45
75273;BMP280;63869;52.344;16.928;2023-05-07T10:48:16;101756.97;;;19.18
75273;BMP280;63869;52.344;16.928;2023-05-07T10:50:42;101764.66;;;18.85
75273;BMP280;63869;52.344;16.928;2023-05-07T10:55:50;101769.94;;;18.54
75273;BMP280;63869;52.344;16.928;2023-05-07T10:58:26;101762.34;;;18.62
75273;BMP280;63869;52.344;16.928;2023-05-07T11:00:59;101764.16;;;18.77
75273;BMP280;63869;52.344;16.928;2023-05-07T11:03:26;101767.31;;;18.76
75273;BMP280;63869;52.344;16.928;2023-05-07T11:06:15;101767.50;;;18.81
75273;BMP280;63869;52.344;16.928;2023-05-07T11:08:53;101766.28;;;18.82
75273;BMP280;63869;52.344;16.928;2023-05-07T11:14:12;101770.47;;;19.09
75273;BMP280;63869;52.344;16.928;2023-05-07T11:16:40;101764.91;;;19.12
75273;BMP280;63869;52.344;16.928;2023-05-07T11:19:06;101766.16;;;18.98
75273;BMP280;63869;52.344;16.928;2023-05-07T11:21:39;101767.75;;;18.74
75273;BMP280;63869;52.344;16.928;2023-05-07T11:24:09;101769.72;;;18.61
75273;BMP280;63869;52.344;16.928;2023-05-07T11:26:49;101773.72;;;18.56
75273;BMP280;63869;52.344;16.928;2023-05-07T11:29:15;101776.78;;;18.59
75273;BMP280;63869;52.344;16.928;2023-05-07T11:31:42;101773.19;;;18.49
75273;BMP280;63869;52.344;16.928;2023-05-07T11:34:07;101768.59;;;18.71
75273;BMP280;63869;52.344;16.928;2023-05-07T11:36:33;101775.38;;;18.88
75273;BMP280;63869;52.344;16.928;2023-05-07T11:38:58;101767.13;;;19.05
75273;BMP280;63869;52.344;16.928;2023-05-07T11:41:34;101781.28;;;19.21
75273;BMP280;63869;52.344;16.928;2023-05-07T11:44:00;101772.72;;;19.10
75273;BMP280;63869;52.344;16.928;2023-05-07T11:46:26;101770.47;;;19.09
75273;BMP280;63869;52.344;16.928;2023-05-07T11:48:52;101778.78;;;19.14
75273;BMP280;63869;52.344;16.928;2023-05-07T11:51:22;101780.72;;;19.26
75273;BMP280;63869;52.344;16.928;2023-05-07T11:53:50;101779.63;;;19.24
75273;BMP280;63869;52.344;16.928;2023-05-07T11:56:17;101771.59;;;18.98
75273;BMP280;63869;52.344;16.928;2023-05-07T11:58:44;101782.28;;;19.02
75273;BMP280;63869;52.344;16.928;2023-05-07T12:01:12;101784.56;;;19.04
75273;BMP280;63869;52.344;16.928;2023-05-07T12:03:42;101777.41;;;19.10
75273;BMP280;63869;52.344;16.928;2023-05-07T12:06:08;101784.00;;;19.21
75273;BMP280;63869;52.344;16.928;2023-05-07T12:08:36;101781.28;;;19.43
75273;BMP280;63869;52.344;16.928;2023-05-07T12:11:01;101779.00;;;19.42
75273;BMP280;63869;52.344;16.928;2023-05-07T12:13:27;101786.09;;;19.39
75273;BMP280;63869;52.344;16.928;2023-05-07T12:15:53;101786.97;;;19.36
75273;BMP280;63869;52.344;16.928;2023-05-07T12:18:19;101782.22;;;19.27
75273;BMP280;63869;52.344;16.928;2023-05-07T12:20:45;101776.25;;;19.20
75273;BMP280;63869;52.344;16.928;2023-05-07T12:23:11;101785.53;;;19.22
75273;BMP280;63869;52.344;16.928;2023-05-07T12:25:37;101784.81;;;19.31
75273;BMP280;63869;52.344;16.928;2023-05-07T12:28:03;101786.38;;;19.41
75273;BMP280;63869;52.344;16.928;2023-05-07T12:30:36;101780.22;;;19.62
75273;BMP280;63869;52.344;16.928;2023-05-07T12:33:02;101790.84;;;19.78
75273;BMP280;63869;52.344;16.928;2023-05-07T12:35:31;101794.53;;;19.94
75273;BMP280;63869;52.344;16.928;2023-05-07T12:37:58;101794.75;;;19.99
75273;BMP280;63869;52.344;16.928;2023-05-07T12:40:35;101807.50;;;19.90
75273;BMP280;63869;52.344;16.928;2023-05-07T12:43:00;101793.56;;;19.78
75273;BMP280;63869;52.344;16.928;2023-05-07T12:45:27;101793.50;;;19.91
75273;BMP280;63869;52.344;16.928;2023-05-07T12:47:53;101802.75;;;20.03
75273;BMP280;63869;52.344;16.928;2023-05-07T12:50:18;101804.28;;;20.04
75273;BMP280;63869;52.344;16.928;2023-05-07T12:52:45;101808.19;;;20.03
75273;BMP280;63869;52.344;16.928;2023-05-07T12:55:13;101800.94;;;20.00
75273;BMP280;63869;52.344;16.928;2023-05-07T12:57:43;101797.13;;;19.97
75273;BMP280;63869;52.344;16.928;2023-05-07T13:00:09;101803.00;;;19.96
75273;BMP280;63869;52.344;16.928;2023-05-07T13:02:38;101806.72;;;19.80
75273;BMP280;63869;52.344;16.928;2023-05-07T13:05:04;101795.84;;;20.02
75273;BMP280;63869;52.344;16.928;2023-05-07T13:07:29;101789.56;;;20.23
75273;BMP280;63869;52.344;16.928;2023-05-07T13:09:54;101791.00;;;20.55
75273;BMP280;63869;52.344;16.928;2023-05-07T13:12:20;101800.25;;;20.67
75273;BMP280;63869;52.344;16.928;2023-05-07T13:14:45;101802.34;;;20.63
75273;BMP280;63869;52.344;16.928;2023-05-07T13:17:10;101793.88;;;20.51
75273;BMP280;63869;52.344;16.928;2023-05-07T13:19:36;101788.94;;;20.68
75273;BMP280;63869;52.344;16.928;2023-05-07T13:22:02;101786.66;;;21.03
75273;BMP280;63869;52.344;16.928;2023-05-07T13:24:28;101800.53;;;21.51
75273;BMP280;63869;52.344;16.928;2023-05-07T13:26:53;101795.84;;;22.02
75273;BMP280;63869;52.344;16.928;2023-05-07T13:29:19;101806.91;;;22.55
75273;BMP280;63869;52.344;16.928;2023-05-07T13:31:44;101789.69;;;23.02
75273;BMP280;63869;52.344;16.928;2023-05-07T13:34:10;101801.69;;;23.34
75273;BMP280;63869;52.344;16.928;2023-05-07T13:36:35;101796.59;;;23.42
75273;BMP280;63869;52.344;16.928;2023-05-07T13:39:04;101783.75;;;23.77
75273;BMP280;63869;52.344;16.928;2023-05-07T13:41:30;101777.50;;;24.32
75273;BMP280;63869;52.344;16.928;2023-05-07T13:43:55;101789.78;;;24.62
75273;BMP280;63869;52.344;16.928;2023-05-07T13:46:21;101787.75;;;24.83
75273;BMP280;63869;52.344;16.928;2023-05-07T13:48:46;101788.16;;;24.70
75273;BMP280;63869;52.344;16.928;2023-05-07T13:51:12;101790.22;;;24.15
75273;BMP280;63869;52.344;16.928;2023-05-07T13:53:37;101794.50;;;23.51
75273;BMP280;63869;52.344;16.928;2023-05-07T13:56:03;101797.34;;;23.28